Terminal Aerodrome Forecast
Issued by NWS Lake Charles, LA

Current Version | Previous Version | Text Only | Print | Product List | Glossary On
Versions: 1 2 3 4 5 6 7 8 9 10 11 12 13 14 15 16 17
000
FTUS44 KLCH 020520
TAFLFT
TAF
KLFT 020520Z 0206/0306 18003KT P6SM SCT015
     FM020700 17004KT 6SM BR BKN015
     FM021500 18014G22KT P6SM BKN025
     FM021800 20016G24KT P6SM SCT025
     FM030100 18007KT P6SM FEW025=

USA.gov is the U.S. government's official web portal to all federal, state and local government web resources and services.